Terminal Aerodrome Forecast
Issued by NWS

Home | Current Version | Previous Version | Text Only | Print | Product List | Glossary On
Versions: 1 2 3 4 5 6 7 8 9 10 11 12 13 14 15 16 17 18
000
FTUS43 KDTX 022359
TAFDET
TAF
KDET 022359Z 0300/0324 28007KT P6SM SKC
     FM030200 VRB04KT P6SM BKN150
     FM031200 14008KT P6SM BKN050
     FM031400 14012KT 4SM -SN BKN035 OVC070
     FM031500 14012KT 1SM -SN BR OVC015
     FM031700 15012KT 1SM -FZRAPL BR BKN008 OVC015
     FM032000 17013KT 3SM -RA BR OVC008
     FM032300 21015KT 2SM -DZ BR OVC007=

USA.gov is the U.S. government's official web portal to all federal, state and local government web resources and services.